createdAt,value
2022-10-05T00:00:56.851Z,1.00
2022-10-05T00:03:26.387Z,1.03
2022-10-05T00:05:54.852Z,0.90
2022-10-05T00:08:25.097Z,0.77
2022-10-05T00:10:53.293Z,0.70
2022-10-05T00:13:23.546Z,1.23
2022-10-05T00:15:52.089Z,1.13
2022-10-05T00:18:22.610Z,1.00
2022-10-05T00:20:51.335Z,1.00
2022-10-05T00:23:30.518Z,0.70
2022-10-05T00:26:06.904Z,0.60
2022-10-05T00:28:35.407Z,0.70
2022-10-05T00:31:03.479Z,0.70
2022-10-05T00:33:32.860Z,0.60
2022-10-05T00:36:00.829Z,0.60
2022-10-05T00:38:29.600Z,0.63
2022-10-05T00:41:12.422Z,1.13
2022-10-05T00:43:56.222Z,1.20
2022-10-05T00:46:27.876Z,1.17
2022-10-05T00:49:06.511Z,1.07
2022-10-05T00:51:37.596Z,0.50
2022-10-05T00:54:21.824Z,0.77
2022-10-05T00:57:12.009Z,0.60
2022-10-05T00:59:52.080Z,0.70
2022-10-05T01:02:34.375Z,0.80
2022-10-05T01:05:12.960Z,0.70
2022-10-05T01:07:48.940Z,0.60
2022-10-05T01:10:25.738Z,0.63
2022-10-05T01:13:03.508Z,0.70
2022-10-05T01:15:37.422Z,1.07
2022-10-05T01:18:11.883Z,0.70
2022-10-05T01:20:52.397Z,0.70
2022-10-05T01:23:59.327Z,0.70
2022-10-05T01:27:00.887Z,1.00
2022-10-05T01:29:33.527Z,0.87
2022-10-05T01:32:07.985Z,0.97
2022-10-05T01:34:40.899Z,0.70
2022-10-05T01:37:16.630Z,0.63
2022-10-05T01:39:54.996Z,0.70
2022-10-05T01:42:33.172Z,0.97
2022-10-05T01:45:09.542Z,0.70
2022-10-05T01:47:44.514Z,0.67
2022-10-05T01:50:23.223Z,0.90
2022-10-05T01:52:59.403Z,0.77
2022-10-05T01:55:34.589Z,1.07
2022-10-05T01:58:10.478Z,0.60
2022-10-05T02:00:46.585Z,0.73
2022-10-05T02:03:19.773Z,0.93
2022-10-05T02:05:52.772Z,0.90
2022-10-05T02:08:26.618Z,0.63
2022-10-05T02:11:00.661Z,0.80
2022-10-05T02:13:38.995Z,1.00
2022-10-05T02:16:11.711Z,1.10
2022-10-05T02:18:42.923Z,0.97
2022-10-05T02:21:11.784Z,0.67
2022-10-05T02:23:41.987Z,0.60
2022-10-05T02:26:12.010Z,0.90
2022-10-05T02:28:45.338Z,0.80
2022-10-05T02:31:17.736Z,0.80
2022-10-05T02:33:45.747Z,1.00
2022-10-05T02:36:16.914Z,0.67
2022-10-05T02:38:59.436Z,1.00
2022-10-05T02:41:41.386Z,0.70
2022-10-05T02:44:20.487Z,0.70
2022-10-05T02:46:57.510Z,0.70
2022-10-05T02:49:32.472Z,0.70
2022-10-05T02:52:07.659Z,0.77
2022-10-05T02:54:47.830Z,1.00
2022-10-05T02:57:23.036Z,0.87
2022-10-05T02:59:58.305Z,0.77
2022-10-05T03:02:32.219Z,1.40
2022-10-05T03:05:09.050Z,0.77
2022-10-05T03:07:44.665Z,0.70
2022-10-05T03:10:18.697Z,0.60
2022-10-05T03:12:53.850Z,0.67
2022-10-05T03:15:48.780Z,0.87
2022-10-05T03:18:30.642Z,0.80
2022-10-05T03:21:08.489Z,0.97
2022-10-05T03:23:47.629Z,0.97
2022-10-05T03:26:33.021Z,1.10
2022-10-05T03:29:07.631Z,1.00
2022-10-05T03:31:41.533Z,0.97
2022-10-05T03:34:16.971Z,0.93
2022-10-05T03:36:50.564Z,0.80
2022-10-05T03:39:27.005Z,0.97
2022-10-05T03:42:03.837Z,0.80
2022-10-05T03:44:41.463Z,0.70
2022-10-05T03:47:15.673Z,1.10
2022-10-05T03:50:06.928Z,1.13
2022-10-05T03:52:40.446Z,0.60
2022-10-05T03:55:18.496Z,0.80
2022-10-05T03:57:49.949Z,0.67
2022-10-05T04:00:20.788Z,0.60
2022-10-05T04:02:54.220Z,0.70
2022-10-05T04:05:28.234Z,0.80
2022-10-05T04:08:00.762Z,0.90
2022-10-05T04:10:35.903Z,0.80
2022-10-05T04:13:08.030Z,0.90
2022-10-05T04:15:42.534Z,0.73
2022-10-05T04:18:23.116Z,0.63
2022-10-05T04:20:56.763Z,0.60
2022-10-05T04:23:34.459Z,0.60
2022-10-05T04:26:07.500Z,0.60
2022-10-05T04:28:44.371Z,0.60
2022-10-05T04:31:16.844Z,0.50
2022-10-05T04:33:51.547Z,0.80
2022-10-05T04:36:27.663Z,1.03
2022-10-05T04:39:09.012Z,0.73
2022-10-05T04:41:49.462Z,1.40
2022-10-05T04:44:45.212Z,1.00
2022-10-05T04:47:38.711Z,0.60
2022-10-05T04:50:18.753Z,0.80
2022-10-05T04:52:59.054Z,0.80
2022-10-05T04:55:34.610Z,0.80
2022-10-05T04:58:11.698Z,1.10
2022-10-05T05:00:50.190Z,0.60
2022-10-05T05:03:40.967Z,0.80
2022-10-05T05:06:23.727Z,0.90
2022-10-05T05:09:14.709Z,0.60
2022-10-05T05:11:56.755Z,0.70
2022-10-05T05:14:45.651Z,0.93
2022-10-05T05:17:25.915Z,1.37
2022-10-05T05:20:02.888Z,0.83
2022-10-05T05:22:40.641Z,0.60
2022-10-05T05:25:23.046Z,0.60
2022-10-05T05:27:55.448Z,0.60
2022-10-05T05:30:25.731Z,0.53
2022-10-05T05:33:07.362Z,0.87
2022-10-05T05:36:06.564Z,1.10
2022-10-05T05:38:39.698Z,1.00
2022-10-05T05:41:12.069Z,1.00
2022-10-05T05:44:03.623Z,0.60
2022-10-05T05:46:58.749Z,0.60
2022-10-05T05:49:33.683Z,0.80
2022-10-05T05:52:07.933Z,0.60
2022-10-05T05:54:41.986Z,0.60
2022-10-05T05:57:14.927Z,0.63
2022-10-05T05:59:54.757Z,1.00
2022-10-05T06:02:28.464Z,0.60
2022-10-05T06:07:30.754Z,0.60
2022-10-05T06:10:06.676Z,0.87
2022-10-05T06:12:40.557Z,0.70
2022-10-05T06:15:19.482Z,1.03
2022-10-05T06:17:52.742Z,0.60
2022-10-05T06:20:26.420Z,0.80
2022-10-05T06:22:58.824Z,0.70
2022-10-05T06:25:38.601Z,0.67
2022-10-05T06:28:12.597Z,0.97
2022-10-05T06:30:53.052Z,0.90
2022-10-05T06:33:34.732Z,0.70
2022-10-05T06:36:13.587Z,0.77
2022-10-05T06:38:55.716Z,0.97
2022-10-05T06:41:33.465Z,0.90
2022-10-05T06:44:06.684Z,1.17
2022-10-05T06:46:40.969Z,1.00
2022-10-05T06:49:22.496Z,1.13
2022-10-05T06:51:55.494Z,1.73
2022-10-05T06:54:43.661Z,1.00
2022-10-05T06:57:20.894Z,1.73
2022-10-05T06:59:55.928Z,2.30
2022-10-05T07:02:30.379Z,1.83
2022-10-05T07:05:35.613Z,1.50
2022-10-05T07:08:09.291Z,2.37
2022-10-05T07:10:46.787Z,3.90
2022-10-05T07:13:37.233Z,5.10
2022-10-05T07:16:13.785Z,7.37
2022-10-05T07:18:51.567Z,7.17
2022-10-05T07:21:28.812Z,2.60
2022-10-05T07:24:05.430Z,3.80
2022-10-05T07:26:38.709Z,2.20
2022-10-05T07:29:33.191Z,1.87
2022-10-05T07:32:15.011Z,1.57
2022-10-05T07:34:51.308Z,0.97
2022-10-05T07:37:44.175Z,1.37
2022-10-05T07:40:18.137Z,0.87
2022-10-05T07:43:14.450Z,1.10
2022-10-05T07:45:47.638Z,2.40
2022-10-05T07:48:21.734Z,2.70
2022-10-05T07:51:00.899Z,1.43
2022-10-05T07:53:34.199Z,1.10
2022-10-05T07:56:09.987Z,1.43
2022-10-05T07:58:42.708Z,0.80
2022-10-05T08:01:17.013Z,0.90
2022-10-05T08:03:53.669Z,0.63
2022-10-05T08:06:45.363Z,0.60
2022-10-05T08:09:37.839Z,0.90
2022-10-05T08:12:20.448Z,0.60
2022-10-05T08:14:56.952Z,1.37
2022-10-05T08:17:36.612Z,1.00
2022-10-05T08:20:19.892Z,0.63
2022-10-05T08:22:53.496Z,0.70
2022-10-05T08:25:26.767Z,0.80
2022-10-05T08:28:00.573Z,0.70
2022-10-05T08:30:31.467Z,0.70
2022-10-05T08:33:09.577Z,0.90
2022-10-05T08:35:43.769Z,0.60
2022-10-05T08:38:16.623Z,0.77
2022-10-05T08:41:15.308Z,0.90
2022-10-05T08:44:18.693Z,0.60
2022-10-05T08:47:14.329Z,0.90
2022-10-05T08:50:08.962Z,0.80
2022-10-05T08:52:59.155Z,0.90
2022-10-05T08:56:02.535Z,0.60
2022-10-05T08:58:55.653Z,1.07
2022-10-05T09:01:31.508Z,0.80
2022-10-05T09:04:34.768Z,1.10
2022-10-05T09:07:21.930Z,0.90
2022-10-05T09:10:32.021Z,1.13
2022-10-05T09:13:31.379Z,0.80
2022-10-05T09:16:22.256Z,0.70
2022-10-05T09:19:04.471Z,0.60
2022-10-05T09:21:42.916Z,0.80
2022-10-05T09:24:26.983Z,1.13
2022-10-05T09:27:04.362Z,1.03
2022-10-05T09:30:03.365Z,0.70
2022-10-05T09:32:53.684Z,1.20
2022-10-05T09:35:37.072Z,1.10
2022-10-05T09:38:14.064Z,1.00
2022-10-05T09:41:18.276Z,1.17
2022-10-05T09:44:36.225Z,0.90
2022-10-05T09:47:29.753Z,2.10
2022-10-05T09:50:45.414Z,0.83
2022-10-05T09:53:40.696Z,0.80
2022-10-05T09:56:25.233Z,0.70
2022-10-05T09:59:32.155Z,0.80
2022-10-05T10:02:32.416Z,0.80
2022-10-05T10:05:23.765Z,1.10
2022-10-05T10:08:15.623Z,1.20
2022-10-05T10:11:01.726Z,0.80
2022-10-05T10:13:53.395Z,0.80
2022-10-05T10:16:49.780Z,0.97
2022-10-05T10:19:30.914Z,1.27
2022-10-05T10:22:25.478Z,1.07
2022-10-05T10:25:21.496Z,0.93
2022-10-05T10:28:25.706Z,1.10
2022-10-05T10:31:12.919Z,1.10
2022-10-05T10:34:03.619Z,0.90
2022-10-05T10:36:51.833Z,0.70
2022-10-05T10:39:27.451Z,0.90
2022-10-05T10:42:25.294Z,0.80
2022-10-05T10:45:13.859Z,1.27
2022-10-05T10:47:53.064Z,0.73
2022-10-05T10:50:52.605Z,1.67
2022-10-05T10:53:34.982Z,1.07
2022-10-05T10:56:19.402Z,0.90
2022-10-05T10:59:06.387Z,1.10
2022-10-05T11:01:38.293Z,0.87
2022-10-05T11:04:43.857Z,0.97
2022-10-05T11:07:44.997Z,1.00
2022-10-05T11:10:46.137Z,0.90
2022-10-05T11:13:42.634Z,0.80
2022-10-05T11:16:33.187Z,0.83
2022-10-05T11:20:02.508Z,1.13
2022-10-05T11:22:55.715Z,1.20
2022-10-05T11:25:50.037Z,0.80
2022-10-05T11:28:44.983Z,1.10
2022-10-05T11:31:43.864Z,0.90
2022-10-05T11:34:36.214Z,0.90
2022-10-05T11:37:29.130Z,0.87
2022-10-05T11:40:33.201Z,1.13
2022-10-05T11:43:32.299Z,0.80
2022-10-05T11:46:09.297Z,0.60
2022-10-05T11:49:06.816Z,0.93
2022-10-05T11:51:42.921Z,0.63
2022-10-05T11:54:27.009Z,0.80
2022-10-05T11:57:01.506Z,1.00
2022-10-05T11:59:35.596Z,0.97
2022-10-05T12:02:22.754Z,1.20
2022-10-05T12:05:00.194Z,0.90
2022-10-05T12:07:37.603Z,0.70
2022-10-05T12:10:21.251Z,1.07
2022-10-05T12:13:06.117Z,1.00
2022-10-05T12:15:44.290Z,0.80
2022-10-05T12:18:17.396Z,0.90
2022-10-05T12:20:50.744Z,0.90
2022-10-05T12:23:24.294Z,1.30
2022-10-05T12:25:57.439Z,0.93
2022-10-05T12:28:34.302Z,1.00
2022-10-05T12:31:21.638Z,1.13
2022-10-05T12:33:58.391Z,0.83
2022-10-05T12:36:59.214Z,1.00
2022-10-05T12:39:33.397Z,1.33
2022-10-05T12:42:15.183Z,1.00
2022-10-05T12:45:04.347Z,1.10
2022-10-05T12:47:47.556Z,0.70
2022-10-05T12:50:23.619Z,0.97
2022-10-05T12:53:03.088Z,0.90
2022-10-05T12:55:37.501Z,0.73
2022-10-05T12:58:19.069Z,1.07
2022-10-05T13:00:57.278Z,1.10
2022-10-05T13:03:27.324Z,1.00
2022-10-05T13:06:04.105Z,0.80
2022-10-05T13:08:39.089Z,0.70
2022-10-05T13:11:15.191Z,0.90
2022-10-05T13:13:54.865Z,1.63
2022-10-05T13:16:37.578Z,1.00
2022-10-05T13:19:32.321Z,0.90
2022-10-05T13:22:28.351Z,1.03
2022-10-05T13:25:08.764Z,1.30
2022-10-05T13:27:43.332Z,0.80
2022-10-05T13:30:15.941Z,0.90
2022-10-05T13:32:48.241Z,0.63
2022-10-05T13:35:33.104Z,0.97
2022-10-05T13:38:08.422Z,1.10
2022-10-05T13:40:44.117Z,0.90
2022-10-05T13:43:20.169Z,1.00
2022-10-05T13:45:56.691Z,1.20
2022-10-05T13:48:47.439Z,1.00
2022-10-05T13:51:22.936Z,0.70
2022-10-05T13:53:57.397Z,0.70
2022-10-05T13:56:31.337Z,0.70
2022-10-05T13:59:12.141Z,1.03
2022-10-05T14:01:44.275Z,0.90
2022-10-05T14:04:19.797Z,0.90
2022-10-05T14:06:49.519Z,0.80
2022-10-05T14:09:30.351Z,0.83
2022-10-05T14:12:15.037Z,0.80
2022-10-05T14:14:49.713Z,0.90
2022-10-05T14:17:32.817Z,0.80
2022-10-05T14:20:04.227Z,0.90
2022-10-05T14:22:42.692Z,1.80
2022-10-05T14:25:17.128Z,1.20
2022-10-05T14:27:51.804Z,0.83
2022-10-05T14:30:23.689Z,0.93
2022-10-05T14:32:56.185Z,3.63
2022-10-05T14:35:29.591Z,0.87
2022-10-05T14:38:00.431Z,0.93
2022-10-05T14:40:33.656Z,1.03
2022-10-05T14:43:18.275Z,0.80
2022-10-05T14:45:57.811Z,0.80
2022-10-05T14:48:28.329Z,0.70
2022-10-05T14:51:00.866Z,0.80
2022-10-05T14:53:39.879Z,1.00
2022-10-05T14:56:33.141Z,0.70
2022-10-05T14:59:27.701Z,0.70
2022-10-05T15:02:00.159Z,1.10
2022-10-05T15:04:43.022Z,0.77
2022-10-05T15:07:26.017Z,0.77
2022-10-05T15:10:19.021Z,0.90
2022-10-05T15:12:49.235Z,0.60
2022-10-05T15:15:27.100Z,0.90
2022-10-05T15:18:00.409Z,0.87
2022-10-05T15:20:35.741Z,0.70
2022-10-05T15:23:24.850Z,0.67
2022-10-05T15:26:02.420Z,1.00
2022-10-05T15:28:38.553Z,1.13
2022-10-05T15:31:16.380Z,0.80
2022-10-05T15:33:54.173Z,0.80
2022-10-05T15:36:26.210Z,0.80
2022-10-05T15:39:06.583Z,0.70
2022-10-05T15:41:52.881Z,0.70
2022-10-05T15:44:28.173Z,0.70
2022-10-05T15:46:59.856Z,0.87
2022-10-05T15:49:36.995Z,0.70
2022-10-05T15:52:13.362Z,0.80
2022-10-05T15:55:35.905Z,0.80
2022-10-05T15:58:42.467Z,0.67
2022-10-05T16:01:16.083Z,0.93
2022-10-05T16:03:49.840Z,0.80
2022-10-05T16:06:54.652Z,0.70
2022-10-05T16:09:44.333Z,0.90
2022-10-05T16:12:21.840Z,0.70
2022-10-05T16:15:01.420Z,0.87
2022-10-05T16:17:42.060Z,0.77
2022-10-05T16:20:28.755Z,0.80
2022-10-05T16:23:02.690Z,0.90
2022-10-05T16:25:44.007Z,1.00
2022-10-05T16:28:24.069Z,0.80
2022-10-05T16:31:00.357Z,0.70
2022-10-05T16:33:46.604Z,0.60
2022-10-05T16:36:22.574Z,0.87
2022-10-05T16:38:57.775Z,0.90
2022-10-05T16:41:34.849Z,1.00
2022-10-05T16:44:11.884Z,0.70
2022-10-05T16:46:47.133Z,0.70
2022-10-05T16:49:27.908Z,0.97
2022-10-05T16:51:59.106Z,0.80
2022-10-05T16:54:32.055Z,0.60
2022-10-05T16:57:05.915Z,0.90
2022-10-05T17:00:16.026Z,0.70
2022-10-05T17:02:57.955Z,0.87
2022-10-05T17:06:13.589Z,1.10
2022-10-05T17:08:59.876Z,1.00
2022-10-05T17:11:40.779Z,1.20
2022-10-05T17:14:27.931Z,0.80
2022-10-05T17:17:23.741Z,1.00
2022-10-05T17:20:04.895Z,1.07
2022-10-05T17:22:39.588Z,0.90
2022-10-05T17:25:18.345Z,0.77
2022-10-05T17:27:55.025Z,0.80
2022-10-05T17:30:38.634Z,1.07
2022-10-05T17:33:25.786Z,0.70
2022-10-05T17:36:11.364Z,0.73
2022-10-05T17:38:51.303Z,0.90
2022-10-05T17:41:26.065Z,0.93
2022-10-05T17:44:20.624Z,0.80
2022-10-05T17:46:51.057Z,0.80
2022-10-05T17:49:39.285Z,1.00
2022-10-05T17:52:40.241Z,0.90
2022-10-05T17:55:38.285Z,0.70
2022-10-05T17:58:40.904Z,0.70
2022-10-05T18:01:19.898Z,0.80
2022-10-05T18:03:51.389Z,0.60
2022-10-05T18:06:49.907Z,0.80
2022-10-05T18:09:34.013Z,0.67
2022-10-05T18:12:36.730Z,1.57
2022-10-05T18:15:38.425Z,0.60
2022-10-05T18:18:36.413Z,1.00
2022-10-05T18:21:24.653Z,0.80
2022-10-05T18:24:04.957Z,0.90
2022-10-05T18:26:40.897Z,0.90
2022-10-05T18:29:44.843Z,0.90
2022-10-05T18:32:20.365Z,1.60
2022-10-05T18:35:02.024Z,0.80
2022-10-05T18:37:42.131Z,0.60
2022-10-05T18:40:25.539Z,3.23
2022-10-05T18:43:02.517Z,0.70
2022-10-05T18:45:38.936Z,0.80
2022-10-05T18:48:20.142Z,0.80
2022-10-05T18:50:56.908Z,0.70
2022-10-05T18:53:32.600Z,0.60
2022-10-05T18:56:11.152Z,0.60
2022-10-05T18:58:50.993Z,0.90
2022-10-05T19:01:49.740Z,1.13
2022-10-05T19:04:27.419Z,1.10
2022-10-05T19:07:08.777Z,0.87
2022-10-05T19:09:56.065Z,1.17
2022-10-05T19:12:39.359Z,0.80
2022-10-05T19:15:20.301Z,1.00
2022-10-05T19:18:11.525Z,0.90
2022-10-05T19:20:45.971Z,0.53
2022-10-05T19:23:27.453Z,0.83
2022-10-05T19:26:03.799Z,0.80
2022-10-05T19:28:38.334Z,0.90
2022-10-05T19:31:21.074Z,0.87
2022-10-05T19:34:13.375Z,1.13
2022-10-05T19:36:50.562Z,1.10
2022-10-05T19:39:29.855Z,0.67
2022-10-05T19:42:20.084Z,1.17
2022-10-05T19:45:02.577Z,1.10
2022-10-05T19:47:43.227Z,2.00
2022-10-05T19:50:32.772Z,1.53
2022-10-05T19:53:12.686Z,2.97
2022-10-05T19:55:43.600Z,1.30
2022-10-05T19:58:20.181Z,0.80
2022-10-05T20:00:55.586Z,1.10
2022-10-05T20:03:27.648Z,1.03
2022-10-05T20:05:57.121Z,0.80
2022-10-05T20:08:26.929Z,1.10
2022-10-05T20:11:16.445Z,0.90
2022-10-05T20:13:46.227Z,1.20
2022-10-05T20:16:45.869Z,1.10
2022-10-05T20:19:49.182Z,0.80
2022-10-05T20:22:32.719Z,1.10
2022-10-05T20:25:02.466Z,0.80
2022-10-05T20:27:48.420Z,0.83
2022-10-05T20:30:19.342Z,1.00
2022-10-05T20:32:49.471Z,1.60
2022-10-05T20:35:18.151Z,0.97
2022-10-05T20:37:46.047Z,1.50
2022-10-05T20:40:14.835Z,1.40
2022-10-05T20:42:42.763Z,1.20
2022-10-05T20:45:13.292Z,2.00
2022-10-05T20:47:42.385Z,1.20
2022-10-05T20:50:11.879Z,1.00
2022-10-05T20:52:40.265Z,0.90
2022-10-05T20:55:10.415Z,0.90
2022-10-05T20:57:42.152Z,0.80
2022-10-05T21:00:13.640Z,0.90
2022-10-05T21:02:41.587Z,1.13
2022-10-05T21:05:10.334Z,1.00
2022-10-05T21:07:38.409Z,0.80
2022-10-05T21:10:07.265Z,1.07
2022-10-05T21:12:35.276Z,0.90
2022-10-05T21:15:04.656Z,1.50
2022-10-05T21:17:35.177Z,1.13
2022-10-05T21:20:03.250Z,0.90
2022-10-05T21:22:31.196Z,0.70
2022-10-05T21:24:59.088Z,1.13
2022-10-05T21:27:27.008Z,0.80
2022-10-05T21:29:54.968Z,1.60
2022-10-05T21:32:22.826Z,0.67
2022-10-05T21:34:52.035Z,0.90
2022-10-05T21:37:20.000Z,1.13
2022-10-05T21:39:47.945Z,1.60
2022-10-05T21:42:15.881Z,0.80
2022-10-05T21:44:43.790Z,1.17
2022-10-05T21:47:11.755Z,0.93
2022-10-05T21:49:39.707Z,1.37
2022-10-05T21:52:08.991Z,1.10
2022-10-05T21:54:37.236Z,1.00
2022-10-05T21:57:05.297Z,0.60
2022-10-05T21:59:35.318Z,0.90
2022-10-05T22:02:03.496Z,0.90
2022-10-05T22:04:31.452Z,0.60
2022-10-05T22:06:59.752Z,0.60
2022-10-05T22:09:29.050Z,1.23
2022-10-05T22:11:57.359Z,1.20
2022-10-05T22:14:25.351Z,0.80
2022-10-05T22:16:54.014Z,0.97
2022-10-05T22:19:22.019Z,0.70
2022-10-05T22:21:50.003Z,0.90
2022-10-05T22:24:17.980Z,0.80
2022-10-05T22:26:51.395Z,0.60
2022-10-05T22:29:19.812Z,1.03
2022-10-05T22:31:48.968Z,0.80
2022-10-05T22:34:17.879Z,0.80
2022-10-05T22:36:45.914Z,0.83
2022-10-05T22:39:14.147Z,0.70
2022-10-05T22:41:42.185Z,0.90
2022-10-05T22:44:11.500Z,1.17
2022-10-05T22:46:39.718Z,0.83
2022-10-05T22:49:07.685Z,0.60
2022-10-05T22:51:35.928Z,0.60
2022-10-05T22:54:03.885Z,1.20
2022-10-05T22:56:31.849Z,0.87
2022-10-05T22:58:59.820Z,0.80
2022-10-05T23:01:29.182Z,1.00
2022-10-05T23:03:57.296Z,1.10
2022-10-05T23:06:26.507Z,1.17
2022-10-05T23:08:54.787Z,0.87
2022-10-05T23:11:25.951Z,0.87
2022-10-05T23:13:55.737Z,1.13
2022-10-05T23:16:26.181Z,0.90
2022-10-05T23:18:56.042Z,0.70
2022-10-05T23:21:25.630Z,0.90
2022-10-05T23:23:53.555Z,0.90
2022-10-05T23:26:23.748Z,0.73
2022-10-05T23:28:51.957Z,0.90
2022-10-05T23:31:22.164Z,0.80
2022-10-05T23:33:50.780Z,1.10
2022-10-05T23:36:21.916Z,1.77
2022-10-05T23:38:50.226Z,0.60
2022-10-05T23:41:19.619Z,0.80
2022-10-05T23:43:48.115Z,0.90
2022-10-05T23:46:17.653Z,0.73
2022-10-05T23:48:45.693Z,1.27
2022-10-05T23:51:15.488Z,0.97
2022-10-05T23:53:44.856Z,0.60
2022-10-05T23:56:13.266Z,0.70
2022-10-05T23:58:41.568Z,1.00
